CNV1220 KRNO-KSFO
Flight info
| Callsign | CNV1220 |
|---|---|
| Flight time | 0h 45m |
| Altitude | 30000 |
| Route | PVINE5 CRDDZ LEGGS BDEGA4 |
| Aircraft | A388/J-SADE2E3FGHIJ3J4J5M1RWXY/LB1D1 |
Departure
| Time | 2026-05-09 04:25 |
|---|---|
| Airport | Reno Tahoe International Airport (KRNO) |
Arrival
| Time | 2026-05-09 05:11 |
|---|---|
| Airport | San Francisco International Airport (KSFO) |
| Time | Latitude | Longitude | Altitude | Speed | Heading |
|---|---|---|---|---|---|
| 2026-05-09 04:02 | 39.50903 | -119.77551 | 4417 ft | 0 kts | 180° |
| 2026-05-09 04:10 | 39.50918 | -119.77541 | 4417 ft | 2 kts | 218° |
| 2026-05-09 04:10 | 39.50926 | -119.77523 | 4418 ft | 2 kts | 247° |
| 2026-05-09 04:10 | 39.50929 | -119.77502 | 4419 ft | 2 kts | 261° |
| 2026-05-09 04:11 | 39.50930 | -119.77481 | 4419 ft | 2 kts | 268° |
| 2026-05-09 04:11 | 39.50931 | -119.77459 | 4419 ft | 2 kts | 269° |
| 2026-05-09 04:11 | 39.50931 | -119.77440 | 4416 ft | 2 kts | 269° |
| 2026-05-09 04:12 | 39.50931 | -119.77431 | 4415 ft | 2 kts | 269° |
| 2026-05-09 04:12 | 39.50931 | -119.77410 | 4415 ft | 2 kts | 269° |
| 2026-05-09 04:13 | 39.50931 | -119.77388 | 4415 ft | 2 kts | 271° |
| 2026-05-09 04:13 | 39.50928 | -119.77367 | 4415 ft | 2 kts | 282° |
| 2026-05-09 04:13 | 39.50925 | -119.77354 | 4415 ft | 2 kts | 285° |
| 2026-05-09 04:13 | 39.50920 | -119.77334 | 4414 ft | 2 kts | 288° |
| 2026-05-09 04:14 | 39.50915 | -119.77313 | 4414 ft | 2 kts | 287° |
| 2026-05-09 04:14 | 39.50911 | -119.77293 | 4416 ft | 2 kts | 285° |
| 2026-05-09 04:14 | 39.50907 | -119.77272 | 4415 ft | 2 kts | 282° |
| 2026-05-09 04:14 | 39.50906 | -119.77251 | 4417 ft | 2 kts | 271° |
| 2026-05-09 04:15 | 39.50906 | -119.77230 | 4417 ft | 2 kts | 269° |
| 2026-05-09 04:15 | 39.50906 | -119.77209 | 4417 ft | 2 kts | 269° |
| 2026-05-09 04:15 | 39.50908 | -119.77188 | 4417 ft | 2 kts | 255° |
| 2026-05-09 04:15 | 39.50918 | -119.77171 | 4417 ft | 2 kts | 224° |
| 2026-05-09 04:16 | 39.50932 | -119.77159 | 4418 ft | 2 kts | 211° |
| 2026-05-09 04:16 | 39.50946 | -119.77152 | 4416 ft | 1 kts | 199° |
| 2026-05-09 04:16 | 39.50948 | -119.77151 | 4416 ft | 0 kts | 195° |
| 2026-05-09 04:18 | 39.50918 | -119.77159 | 4416 ft | 5 kts | 173° |
| 2026-05-09 04:18 | 39.50864 | -119.77152 | 4413 ft | 10 kts | 177° |
| 2026-05-09 04:19 | 39.50785 | -119.77147 | 4414 ft | 12 kts | 177° |
| 2026-05-09 04:19 | 39.50695 | -119.77146 | 4416 ft | 13 kts | 181° |
| 2026-05-09 04:19 | 39.50594 | -119.77150 | 4416 ft | 16 kts | 182° |
| 2026-05-09 04:19 | 39.50469 | -119.77153 | 4414 ft | 19 kts | 180° |
| 2026-05-09 04:20 | 39.50333 | -119.77153 | 4416 ft | 20 kts | 180° |
| 2026-05-09 04:20 | 39.50192 | -119.77153 | 4415 ft | 22 kts | 180° |
| 2026-05-09 04:20 | 39.50033 | -119.77153 | 4413 ft | 23 kts | 180° |
| 2026-05-09 04:20 | 39.49871 | -119.77153 | 4415 ft | 24 kts | 180° |
| 2026-05-09 04:21 | 39.49699 | -119.77154 | 4411 ft | 25 kts | 180° |
| 2026-05-09 04:21 | 39.49525 | -119.77155 | 4414 ft | 25 kts | 180° |
| 2026-05-09 04:21 | 39.49170 | -119.77156 | 4414 ft | 25 kts | 180° |
| 2026-05-09 04:22 | 39.49010 | -119.77157 | 4412 ft | 20 kts | 180° |
| 2026-05-09 04:22 | 39.48922 | -119.77078 | 4410 ft | 17 kts | 86° |
| 2026-05-09 04:22 | 39.48924 | -119.76924 | 4409 ft | 19 kts | 89° |
| 2026-05-09 04:22 | 39.48924 | -119.76834 | 4409 ft | 0 kts | 89° |
| 2026-05-09 04:24 | 39.48925 | -119.76792 | 4410 ft | 10 kts | 90° |
| 2026-05-09 04:24 | 39.48938 | -119.76701 | 4410 ft | 10 kts | 51° |
| 2026-05-09 04:24 | 39.48983 | -119.76684 | 4410 ft | 20 kts | 1° |
| 2026-05-09 04:25 | 39.49415 | -119.76684 | 4418 ft | 104 kts | 0° |
| 2026-05-09 04:25 | 39.50368 | -119.76682 | 4422 ft | 163 kts | 356° |
| 2026-05-09 04:25 | 39.51551 | -119.76663 | 4948 ft | 170 kts | 356° |
| 2026-05-09 04:25 | 39.52769 | -119.76680 | 5503 ft | 181 kts | 356° |
| 2026-05-09 04:26 | 39.54099 | -119.76701 | 5718 ft | 201 kts | 357° |
| 2026-05-09 04:26 | 39.55578 | -119.76714 | 5895 ft | 225 kts | 357° |
| 2026-05-09 04:26 | 39.57212 | -119.76722 | 6265 ft | 246 kts | 358° |
| 2026-05-09 04:26 | 39.59020 | -119.76726 | 6624 ft | 271 kts | 358° |
| 2026-05-09 04:27 | 39.60928 | -119.76728 | 7401 ft | 277 kts | 358° |
| 2026-05-09 04:27 | 39.62836 | -119.76960 | 8256 ft | 276 kts | 341° |
| 2026-05-09 04:27 | 39.64485 | -119.78185 | 9116 ft | 279 kts | 317° |
| 2026-05-09 04:27 | 39.65597 | -119.80280 | 9818 ft | 290 kts | 291° |
| 2026-05-09 04:28 | 39.65994 | -119.82875 | 10496 ft | 301 kts | 277° |
| 2026-05-09 04:28 | 39.66211 | -119.85662 | 10804 ft | 321 kts | 276° |
| 2026-05-09 04:28 | 39.66454 | -119.88626 | 11149 ft | 337 kts | 277° |
| 2026-05-09 04:28 | 39.66739 | -119.91678 | 11763 ft | 344 kts | 276° |
| 2026-05-09 04:29 | 39.66749 | -119.94779 | 12599 ft | 343 kts | 264° |
| 2026-05-09 04:29 | 39.66292 | -119.97806 | 13470 ft | 345 kts | 254° |
| 2026-05-09 04:29 | 39.65452 | -120.00760 | 13894 ft | 353 kts | 250° |
| 2026-05-09 04:29 | 39.64577 | -120.03749 | 14596 ft | 354 kts | 250° |
| 2026-05-09 04:30 | 39.63721 | -120.06732 | 15426 ft | 353 kts | 251° |
| 2026-05-09 04:30 | 39.62859 | -120.09750 | 15971 ft | 360 kts | 251° |
| 2026-05-09 04:30 | 39.61986 | -120.12799 | 16698 ft | 361 kts | 251° |
| 2026-05-09 04:30 | 39.61105 | -120.15869 | 17350 ft | 365 kts | 251° |
| 2026-05-09 04:31 | 39.60215 | -120.18962 | 18036 ft | 367 kts | 251° |
| 2026-05-09 04:31 | 39.59319 | -120.22073 | 18653 ft | 370 kts | 251° |
| 2026-05-09 04:31 | 39.58417 | -120.25197 | 19257 ft | 370 kts | 251° |
| 2026-05-09 04:31 | 39.57512 | -120.28328 | 19863 ft | 372 kts | 251° |
| 2026-05-09 04:32 | 39.56603 | -120.31472 | 20443 ft | 373 kts | 251° |
| 2026-05-09 04:32 | 39.55688 | -120.34631 | 21024 ft | 375 kts | 251° |
| 2026-05-09 04:32 | 39.54769 | -120.37802 | 21589 ft | 377 kts | 251° |
| 2026-05-09 04:32 | 39.53845 | -120.40987 | 22103 ft | 379 kts | 251° |
| 2026-05-09 04:33 | 39.52925 | -120.44156 | 22604 ft | 382 kts | 251° |
| 2026-05-09 04:33 | 39.51987 | -120.47382 | 23164 ft | 383 kts | 251° |
| 2026-05-09 04:33 | 39.51043 | -120.50618 | 23714 ft | 385 kts | 252° |
| 2026-05-09 04:33 | 39.50096 | -120.53865 | 24163 ft | 387 kts | 252° |
| 2026-05-09 04:34 | 39.49142 | -120.57130 | 24610 ft | 388 kts | 252° |
| 2026-05-09 04:34 | 39.48184 | -120.60405 | 25084 ft | 389 kts | 252° |
| 2026-05-09 04:34 | 39.47222 | -120.63687 | 25574 ft | 391 kts | 252° |
| 2026-05-09 04:34 | 39.46256 | -120.66984 | 26070 ft | 393 kts | 252° |
| 2026-05-09 04:35 | 39.45284 | -120.70294 | 26600 ft | 394 kts | 252° |
| 2026-05-09 04:35 | 39.44307 | -120.73619 | 27138 ft | 396 kts | 252° |
| 2026-05-09 04:35 | 39.43324 | -120.76961 | 27688 ft | 398 kts | 253° |
| 2026-05-09 04:35 | 39.42334 | -120.80320 | 28224 ft | 401 kts | 253° |
| 2026-05-09 04:36 | 39.41340 | -120.83694 | 28797 ft | 403 kts | 253° |
| 2026-05-09 04:36 | 39.40338 | -120.87087 | 29343 ft | 405 kts | 253° |
| 2026-05-09 04:36 | 39.39330 | -120.90499 | 29915 ft | 408 kts | 253° |
| 2026-05-09 04:36 | 39.38307 | -120.93955 | 30079 ft | 418 kts | 253° |
| 2026-05-09 04:37 | 39.37252 | -120.97526 | 30090 ft | 432 kts | 253° |
| 2026-05-09 04:37 | 39.35075 | -121.04840 | 30098 ft | 437 kts | 252° |
| 2026-05-09 04:38 | 39.32273 | -121.11847 | 30094 ft | 443 kts | 242° |
| 2026-05-09 04:38 | 39.28599 | -121.18301 | 30088 ft | 447 kts | 238° |
| 2026-05-09 04:39 | 39.24878 | -121.24706 | 29983 ft | 446 kts | 239° |
| 2026-05-09 04:39 | 39.21152 | -121.31126 | 29976 ft | 447 kts | 238° |
| 2026-05-09 04:40 | 39.17442 | -121.37490 | 29981 ft | 447 kts | 238° |
| 2026-05-09 04:40 | 39.13677 | -121.43936 | 29981 ft | 447 kts | 238° |
| 2026-05-09 04:41 | 39.09959 | -121.50287 | 29985 ft | 448 kts | 238° |
| 2026-05-09 04:41 | 39.06205 | -121.56689 | 29991 ft | 448 kts | 238° |
| 2026-05-09 04:42 | 39.02448 | -121.63081 | 29989 ft | 448 kts | 238° |
| 2026-05-09 04:42 | 38.98687 | -121.69469 | 29990 ft | 448 kts | 238° |
| 2026-05-09 04:43 | 38.94923 | -121.75848 | 29987 ft | 448 kts | 238° |
| 2026-05-09 04:43 | 38.91155 | -121.82223 | 29984 ft | 448 kts | 238° |
| 2026-05-09 04:44 | 38.87384 | -121.88589 | 29983 ft | 448 kts | 238° |
| 2026-05-09 04:44 | 38.83610 | -121.94947 | 29985 ft | 448 kts | 238° |
| 2026-05-09 04:45 | 38.79830 | -122.01303 | 29989 ft | 448 kts | 238° |
| 2026-05-09 04:45 | 38.76047 | -122.07652 | 29983 ft | 448 kts | 238° |
| 2026-05-09 04:46 | 38.74123 | -122.10878 | 29998 ft | 448 kts | 238° |
| 2026-05-09 04:47 | 38.72924 | -122.12885 | 29993 ft | 448 kts | 238° |
| 2026-05-09 04:48 | 38.69132 | -122.19227 | 30005 ft | 449 kts | 238° |
| 2026-05-09 04:48 | 38.65354 | -122.25525 | 29813 ft | 435 kts | 238° |
| 2026-05-09 04:48 | 38.63540 | -122.28536 | 29514 ft | 420 kts | 238° |
| 2026-05-09 04:49 | 38.61775 | -122.31471 | 28719 ft | 413 kts | 238° |
| 2026-05-09 04:49 | 38.60032 | -122.34374 | 27787 ft | 411 kts | 237° |
| 2026-05-09 04:49 | 38.58306 | -122.37250 | 27443 ft | 404 kts | 237° |
| 2026-05-09 04:49 | 38.56589 | -122.40106 | 27825 ft | 408 kts | 237° |
| 2026-05-09 04:50 | 38.54797 | -122.42966 | 27933 ft | 417 kts | 233° |
| 2026-05-09 04:50 | 38.52744 | -122.45597 | 27847 ft | 417 kts | 227° |
| 2026-05-09 04:50 | 38.50514 | -122.47904 | 27713 ft | 408 kts | 224° |
| 2026-05-09 04:50 | 38.48309 | -122.50144 | 27286 ft | 402 kts | 224° |
| 2026-05-09 04:51 | 38.46141 | -122.52379 | 26708 ft | 400 kts | 224° |
| 2026-05-09 04:51 | 38.43983 | -122.54614 | 26122 ft | 398 kts | 224° |
| 2026-05-09 04:51 | 38.41838 | -122.56834 | 25579 ft | 396 kts | 224° |
| 2026-05-09 04:51 | 38.39703 | -122.59038 | 25025 ft | 394 kts | 223° |
| 2026-05-09 04:52 | 38.37577 | -122.61229 | 24500 ft | 392 kts | 223° |
| 2026-05-09 04:52 | 38.35463 | -122.63405 | 23943 ft | 391 kts | 223° |
| 2026-05-09 04:52 | 38.33354 | -122.65574 | 23221 ft | 389 kts | 222° |
| 2026-05-09 04:52 | 38.31264 | -122.67720 | 22520 ft | 383 kts | 222° |
| 2026-05-09 04:53 | 38.29199 | -122.69838 | 21811 ft | 379 kts | 222° |
| 2026-05-09 04:53 | 38.27154 | -122.71935 | 21271 ft | 377 kts | 222° |
| 2026-05-09 04:53 | 38.25110 | -122.73996 | 20830 ft | 375 kts | 218° |
| 2026-05-09 04:53 | 38.22776 | -122.75485 | 20344 ft | 379 kts | 200° |
| 2026-05-09 04:54 | 38.20169 | -122.76009 | 19844 ft | 382 kts | 182° |
| 2026-05-09 04:54 | 38.17533 | -122.75539 | 19355 ft | 384 kts | 169° |
| 2026-05-09 04:54 | 38.14940 | -122.74717 | 18845 ft | 383 kts | 168° |
| 2026-05-09 04:54 | 38.12366 | -122.73894 | 18325 ft | 381 kts | 169° |
| 2026-05-09 04:55 | 38.09805 | -122.73101 | 17810 ft | 377 kts | 169° |
| 2026-05-09 04:55 | 38.07265 | -122.72341 | 17318 ft | 373 kts | 170° |
| 2026-05-09 04:55 | 38.04747 | -122.71602 | 16818 ft | 369 kts | 170° |
| 2026-05-09 04:55 | 38.02253 | -122.70877 | 16345 ft | 366 kts | 170° |
| 2026-05-09 04:56 | 37.99784 | -122.70165 | 15869 ft | 362 kts | 169° |
| 2026-05-09 04:56 | 37.97332 | -122.69456 | 15393 ft | 360 kts | 171° |
| 2026-05-09 04:56 | 37.94892 | -122.68753 | 14918 ft | 358 kts | 169° |
| 2026-05-09 04:56 | 37.92476 | -122.68053 | 14447 ft | 355 kts | 169° |
| 2026-05-09 04:57 | 37.90148 | -122.67009 | 13997 ft | 356 kts | 157° |
| 2026-05-09 04:57 | 37.88045 | -122.65362 | 13623 ft | 355 kts | 144° |
| 2026-05-09 04:57 | 37.86173 | -122.63334 | 13282 ft | 354 kts | 141° |
| 2026-05-09 04:57 | 37.84303 | -122.61326 | 12952 ft | 352 kts | 142° |
| 2026-05-09 04:58 | 37.82427 | -122.59342 | 12690 ft | 348 kts | 141° |
| 2026-05-09 04:58 | 37.80602 | -122.57414 | 12492 ft | 335 kts | 141° |
| 2026-05-09 04:58 | 37.79440 | -122.56185 | 12376 ft | 323 kts | 141° |
| 2026-05-09 04:58 | 37.77756 | -122.54404 | 12019 ft | 312 kts | 142° |
| 2026-05-09 04:59 | 37.76079 | -122.52633 | 11429 ft | 314 kts | 141° |
| 2026-05-09 04:59 | 37.74403 | -122.50864 | 11120 ft | 313 kts | 141° |
| 2026-05-09 04:59 | 37.72742 | -122.49110 | 11022 ft | 308 kts | 141° |
| 2026-05-09 04:59 | 37.71126 | -122.47392 | 11009 ft | 302 kts | 141° |
| 2026-05-09 05:00 | 37.69512 | -122.45673 | 11009 ft | 304 kts | 141° |
| 2026-05-09 05:00 | 37.67890 | -122.43945 | 11010 ft | 306 kts | 141° |
| 2026-05-09 05:00 | 37.66263 | -122.42215 | 11011 ft | 307 kts | 141° |
| 2026-05-09 05:00 | 37.64629 | -122.40479 | 11008 ft | 307 kts | 141° |
| 2026-05-09 05:01 | 37.62993 | -122.38741 | 10997 ft | 308 kts | 141° |
| 2026-05-09 05:01 | 37.61291 | -122.37133 | 10972 ft | 306 kts | 149° |
| 2026-05-09 05:01 | 37.59406 | -122.35882 | 10685 ft | 307 kts | 155° |
| 2026-05-09 05:01 | 37.57497 | -122.34693 | 10270 ft | 307 kts | 154° |
| 2026-05-09 05:02 | 37.55589 | -122.33481 | 9814 ft | 308 kts | 154° |
| 2026-05-09 05:02 | 37.53694 | -122.32265 | 9475 ft | 303 kts | 154° |
| 2026-05-09 05:02 | 37.51820 | -122.31059 | 9060 ft | 302 kts | 153° |
| 2026-05-09 05:02 | 37.49961 | -122.29861 | 8656 ft | 300 kts | 153° |
| 2026-05-09 05:03 | 37.48108 | -122.28668 | 8218 ft | 300 kts | 153° |
| 2026-05-09 05:03 | 37.46287 | -122.27440 | 7924 ft | 295 kts | 146° |
| 2026-05-09 05:03 | 37.44892 | -122.25607 | 7720 ft | 288 kts | 121° |
| 2026-05-09 05:03 | 37.44061 | -122.23327 | 7310 ft | 287 kts | 112° |
| 2026-05-09 05:04 | 37.43409 | -122.20954 | 6862 ft | 287 kts | 98° |
| 2026-05-09 05:04 | 37.43527 | -122.18489 | 6511 ft | 282 kts | 71° |
| 2026-05-09 05:04 | 37.44462 | -122.16417 | 6244 ft | 265 kts | 45° |
| 2026-05-09 05:04 | 37.45736 | -122.14866 | 6030 ft | 246 kts | 42° |
| 2026-05-09 05:05 | 37.46932 | -122.13470 | 5797 ft | 232 kts | 32° |
| 2026-05-09 05:05 | 37.48410 | -122.12800 | 5367 ft | 225 kts | 0° |
| 2026-05-09 05:05 | 37.49873 | -122.13223 | 5111 ft | 208 kts | 329° |
| 2026-05-09 05:05 | 37.50952 | -122.14240 | 4686 ft | 187 kts | 322° |
| 2026-05-09 05:06 | 37.51984 | -122.15219 | 3912 ft | 189 kts | 323° |
| 2026-05-09 05:06 | 37.53027 | -122.16295 | 3395 ft | 201 kts | 313° |
| 2026-05-09 05:06 | 37.53784 | -122.17684 | 3584 ft | 182 kts | 300° |
| 2026-05-09 05:06 | 37.54383 | -122.19098 | 3767 ft | 190 kts | 298° |
| 2026-05-09 05:07 | 37.55001 | -122.20682 | 3512 ft | 197 kts | 296° |
| 2026-05-09 05:07 | 37.55599 | -122.22279 | 2733 ft | 207 kts | 296° |
| 2026-05-09 05:07 | 37.56224 | -122.23829 | 2200 ft | 183 kts | 301° |
| 2026-05-09 05:07 | 37.56910 | -122.25036 | 1983 ft | 162 kts | 298° |
| 2026-05-09 05:08 | 37.57366 | -122.26300 | 1761 ft | 157 kts | 296° |
| 2026-05-09 05:08 | 37.57928 | -122.27487 | 1543 ft | 158 kts | 297° |
| 2026-05-09 05:08 | 37.58406 | -122.28725 | 1326 ft | 157 kts | 296° |
| 2026-05-09 05:08 | 37.58926 | -122.29903 | 1114 ft | 148 kts | 297° |
| 2026-05-09 05:09 | 37.59373 | -122.31010 | 904 ft | 134 kts | 295° |
| 2026-05-09 05:09 | 37.59807 | -122.32020 | 733 ft | 130 kts | 297° |
| 2026-05-09 05:09 | 37.60226 | -122.33028 | 551 ft | 129 kts | 295° |
| 2026-05-09 05:09 | 37.60641 | -122.34023 | 372 ft | 128 kts | 297° |
| 2026-05-09 05:10 | 37.61048 | -122.35010 | 211 ft | 125 kts | 296° |
| 2026-05-09 05:10 | 37.61467 | -122.35970 | 39 ft | 124 kts | 296° |
| 2026-05-09 05:10 | 37.61808 | -122.36793 | 23 ft | 85 kts | 298° |
| 2026-05-09 05:10 | 37.62038 | -122.37342 | 25 ft | 59 kts | 298° |
| 2026-05-09 05:11 | 37.62197 | -122.37740 | 27 ft | 41 kts | 277° |
| 2026-05-09 05:11 | 37.62220 | -122.38015 | 29 ft | 23 kts | 276° |
| 2026-05-09 05:11 | 37.62223 | -122.38056 | 29 ft | 0 kts | 276° |
| 2026-05-09 05:11 | 37.62223 | -122.38057 | 29 ft | 0 kts | 276° |
| 2026-05-09 05:12 | 37.62230 | -122.38145 | 28 ft | 17 kts | 265° |
| 2026-05-09 05:12 | 37.62187 | -122.38281 | 30 ft | 17 kts | 217° |
| 2026-05-09 05:12 | 37.62087 | -122.38313 | 27 ft | 12 kts | 141° |
| 2026-05-09 05:12 | 37.62076 | -122.38290 | 27 ft | 2 kts | 107° |
| 2026-05-09 05:13 | 37.62074 | -122.38281 | 28 ft | 2 kts | 110° |
| 2026-05-09 05:13 | 37.62038 | -122.38200 | 28 ft | 15 kts | 120° |
| 2026-05-09 05:13 | 37.61979 | -122.38063 | 31 ft | 10 kts | 116° |
| 2026-05-09 05:13 | 37.61971 | -122.38044 | 31 ft | 5 kts | 117° |
| 2026-05-09 05:14 | 37.61945 | -122.37986 | 29 ft | 11 kts | 126° |
| 2026-05-09 05:14 | 37.61872 | -122.37909 | 29 ft | 17 kts | 148° |
| 2026-05-09 05:14 | 37.61748 | -122.37868 | 23 ft | 20 kts | 174° |
| 2026-05-09 05:14 | 37.61613 | -122.37906 | 23 ft | 21 kts | 207° |
| 2026-05-09 05:15 | 37.61477 | -122.37996 | 21 ft | 22 kts | 208° |
| 2026-05-09 05:15 | 37.61340 | -122.38088 | 22 ft | 23 kts | 208° |